Time,TemperatureF,DewpointF,PressureIn,WindDirection,WindDirectionDegrees,WindSpeedMPH,WindSpeedGustMPH,Humidity,HourlyPrecipIn,Conditions,Clouds,dailyrainin,SoftwareType,DateUTC
2013-02-01 00:02:00,46.4,41.8,30.21,North,360,2.0,4.0,84,0.00,,,0.00,Wunderground v.1.15,2013-02-01 08:02:00,
2013-02-01 00:07:00,46.8,42.2,30.21,North,360,4.0,4.0,84,0.00,,,0.00,Wunderground v.1.15,2013-02-01 08:07:00,
2013-02-01 00:12:00,47.4,42.5,30.21,North,360,2.0,4.0,83,0.00,,,0.00,Wunderground v.1.15,2013-02-01 08:12:00,
2013-02-01 00:17:00,47.8,42.6,30.21,North,360,3.0,4.0,82,0.00,,,0.00,Wunderground v.1.15,2013-02-01 08:17:00,
2013-02-01 00:22:00,48.2,42.6,30.21,North,360,2.0,4.0,81,0.00,,,0.00,Wunderground v.1.15,2013-02-01 08:22:00,
2013-02-01 00:27:00,48.5,42.9,30.21,North,360,2.0,4.0,81,0.00,,,0.00,Wunderground v.1.15,2013-02-01 08:27:00,
2013-02-01 00:32:00,48.7,42.8,30.21,North,360,1.0,3.0,80,0.00,,,0.00,Wunderground v.1.15,2013-02-01 08:32:00,
2013-02-01 00:37:00,48.8,42.9,30.21,North,360,4.0,4.0,80,0.00,,,0.00,Wunderground v.1.15,2013-02-01 08:37:00,
2013-02-01 00:42:00,49.0,42.8,30.21,North,360,2.0,3.0,79,0.00,,,0.00,Wunderground v.1.15,2013-02-01 08:42:00,
2013-02-01 00:47:00,49.1,42.9,30.21,North,360,2.0,4.0,79,0.00,,,0.00,Wunderground v.1.15,2013-02-01 08:47:00,
2013-02-01 00:52:00,49.2,43.0,30.21,North,360,3.0,3.0,79,0.00,,,0.00,Wunderground v.1.15,2013-02-01 08:52:00,
2013-02-01 00:57:00,49.2,43.0,30.21,North,360,2.0,3.0,79,0.00,,,0.00,Wunderground v.1.15,2013-02-01 08:57:00,
2013-02-01 01:02:00,49.2,43.0,30.21,North,360,1.0,3.0,79,0.00,,,0.00,Wunderground v.1.15,2013-02-01 09:02:00,
2013-02-01 01:07:00,49.1,42.9,30.21,North,360,1.0,3.0,79,0.00,,,0.00,Wunderground v.1.15,2013-02-01 09:07:00,
2013-02-01 01:12:00,49.1,42.9,30.21,North,360,1.0,2.0,79,0.00,,,0.00,Wunderground v.1.15,2013-02-01 09:12:00,
2013-02-01 01:17:00,49.1,42.9,30.21,North,360,1.0,2.0,79,0.00,,,0.00,Wunderground v.1.15,2013-02-01 09:17:00,
2013-02-01 01:22:00,49.1,42.9,30.21,North,360,1.0,2.0,79,0.00,,,0.00,Wunderground v.1.15,2013-02-01 09:22:00,
2013-02-01 01:27:00,49.1,42.9,30.21,North,360,0.0,2.0,79,0.00,,,0.00,Wunderground v.1.15,2013-02-01 09:27:00,
2013-02-01 01:32:00,49.0,42.8,30.21,North,360,0.0,0.0,79,0.00,,,0.00,Wunderground v.1.15,2013-02-01 09:32:00,
2013-02-01 01:37:00,49.0,42.8,30.22,North,360,0.0,0.0,79,0.00,,,0.00,Wunderground v.1.15,2013-02-01 09:37:00,
2013-02-01 01:42:00,48.9,42.7,30.22,North,360,0.0,0.0,79,0.00,,,0.00,Wunderground v.1.15,2013-02-01 09:42:00,
2013-02-01 01:47:00,48.8,42.6,30.21,North,360,0.0,0.0,79,0.00,,,0.00,Wunderground v.1.15,2013-02-01 09:47:00,
2013-02-01 01:52:00,48.6,42.4,30.21,North,360,0.0,1.0,79,0.00,,,0.00,Wunderground v.1.15,2013-02-01 09:52:00,
2013-02-01 01:57:00,48.4,42.2,30.21,North,360,0.0,1.0,79,0.00,,,0.00,Wunderground v.1.15,2013-02-01 09:57:00,
2013-02-01 02:02:00,48.1,41.9,30.21,North,360,0.0,1.0,79,0.00,,,0.00,Wunderground v.1.15,2013-02-01 10:02:00,
2013-02-01 02:07:00,47.9,41.7,30.21,North,360,0.0,1.0,79,0.00,,,0.00,Wunderground v.1.15,2013-02-01 10:07:00,
2013-02-01 02:12:00,47.7,41.5,30.21,North,360,0.0,0.0,79,0.00,,,0.00,Wunderground v.1.15,2013-02-01 10:12:00,
2013-02-01 02:17:00,47.4,41.2,30.21,North,360,0.0,0.0,79,0.00,,,0.00,Wunderground v.1.15,2013-02-01 10:17:00,
2013-02-01 02:22:00,47.0,40.5,30.22,North,360,0.0,1.0,78,0.00,,,0.00,Wunderground v.1.15,2013-02-01 10:22:00,
2013-02-01 02:27:00,46.7,40.5,30.21,North,360,0.0,1.0,79,0.00,,,0.00,Wunderground v.1.15,2013-02-01 10:27:00,
2013-02-01 02:32:00,46.3,39.8,30.21,North,360,0.0,0.0,78,0.00,,,0.00,Wunderground v.1.15,2013-02-01 10:32:00,
2013-02-01 02:37:00,46.0,39.9,30.22,North,360,0.0,0.0,79,0.00,,,0.00,Wunderground v.1.15,2013-02-01 10:37:00,
2013-02-01 02:42:00,45.6,39.5,30.22,North,360,0.0,0.0,79,0.00,,,0.00,Wunderground v.1.15,2013-02-01 10:42:00,
2013-02-01 02:47:00,45.3,39.5,30.22,North,360,0.0,0.0,80,0.00,,,0.00,Wunderground v.1.15,2013-02-01 10:47:00,
2013-02-01 02:52:00,45.0,39.2,30.21,North,360,0.0,0.0,80,0.00,,,0.00,Wunderground v.1.15,2013-02-01 10:52:00,
2013-02-01 02:57:00,44.6,39.1,30.21,North,360,0.0,0.0,81,0.00,,,0.00,Wunderground v.1.15,2013-02-01 10:57:00,
2013-02-01 03:02:00,44.0,38.9,30.21,North,360,1.0,2.0,82,0.00,,,0.00,Wunderground v.1.15,2013-02-01 11:02:00,
2013-02-01 03:07:00,43.4,38.9,30.21,North,360,1.0,2.0,84,0.00,,,0.00,Wunderground v.1.15,2013-02-01 11:07:00,
2013-02-01 03:12:00,43.1,38.9,30.21,North,360,1.0,2.0,85,0.00,,,0.00,Wunderground v.1.15,2013-02-01 11:12:00,
2013-02-01 03:17:00,43.0,38.8,30.21,North,360,2.0,2.0,85,0.00,,,0.00,Wunderground v.1.15,2013-02-01 11:17:00,
2013-02-01 03:22:00,42.9,39.0,30.21,North,360,1.0,3.0,86,0.00,,,0.00,Wunderground v.1.15,2013-02-01 11:22:00,
2013-02-01 03:27:00,43.1,39.2,30.21,North,360,2.0,3.0,86,0.00,,,0.00,Wunderground v.1.15,2013-02-01 11:27:00,
2013-02-01 03:32:00,43.3,39.4,30.21,North,360,1.0,3.0,86,0.00,,,0.00,Wunderground v.1.15,2013-02-01 11:32:00,
2013-02-01 03:37:00,43.4,39.5,30.21,North,360,2.0,3.0,86,0.00,,,0.00,Wunderground v.1.15,2013-02-01 11:37:00,
2013-02-01 03:42:00,43.6,39.7,30.21,North,360,1.0,2.0,86,0.00,,,0.00,Wunderground v.1.15,2013-02-01 11:42:00,
2013-02-01 03:47:00,43.8,39.6,30.21,North,360,1.0,3.0,85,0.00,,,0.00,Wunderground v.1.15,2013-02-01 11:47:00,
2013-02-01 03:52:00,44.0,39.8,30.21,North,360,0.0,1.0,85,0.00,,,0.00,Wunderground v.1.15,2013-02-01 11:52:00,
2013-02-01 03:57:00,44.1,39.9,30.21,North,360,0.0,1.0,85,0.00,,,0.00,Wunderground v.1.15,2013-02-01 11:57:00,
2013-02-01 04:02:00,44.2,39.7,30.21,North,360,0.0,1.0,84,0.00,,,0.00,Wunderground v.1.15,2013-02-01 12:02:00,
2013-02-01 04:07:00,44.2,39.7,30.21,North,360,0.0,1.0,84,0.00,,,0.00,Wunderground v.1.15,2013-02-01 12:07:00,
2013-02-01 04:12:00,44.3,39.5,30.22,North,360,0.0,1.0,83,0.00,,,0.00,Wunderground v.1.15,2013-02-01 12:12:00,
2013-02-01 04:17:00,44.3,39.5,30.22,North,360,1.0,1.0,83,0.00,,,0.00,Wunderground v.1.15,2013-02-01 12:17:00,
2013-02-01 04:22:00,44.3,39.5,30.22,North,360,2.0,3.0,83,0.00,,,0.00,Wunderground v.1.15,2013-02-01 12:22:00,
2013-02-01 04:27:00,44.3,39.5,30.22,North,360,3.0,3.0,83,0.00,,,0.00,Wunderground v.1.15,2013-02-01 12:27:00,
2013-02-01 04:32:00,44.4,39.2,30.22,North,360,2.0,4.0,82,0.00,,,0.00,Wunderground v.1.15,2013-02-01 12:32:00,
2013-02-01 04:37:00,44.5,39.3,30.22,North,360,1.0,4.0,82,0.00,,,0.00,Wunderground v.1.15,2013-02-01 12:37:00,
2013-02-01 04:42:00,44.6,39.4,30.21,North,360,1.0,4.0,82,0.00,,,0.00,Wunderground v.1.15,2013-02-01 12:42:00,
2013-02-01 04:47:00,44.7,39.5,30.21,North,360,1.0,4.0,82,0.00,,,0.00,Wunderground v.1.15,2013-02-01 12:47:00,
2013-02-01 04:52:00,44.9,39.7,30.21,North,360,0.0,2.0,82,0.00,,,0.00,Wunderground v.1.15,2013-02-01 12:52:00,
2013-02-01 04:57:00,45.1,39.6,30.21,North,360,0.0,2.0,81,0.00,,,0.00,Wunderground v.1.15,2013-02-01 12:57:00,
2013-02-01 05:02:00,45.0,39.2,30.21,North,360,0.0,1.0,80,0.00,,,0.00,Wunderground v.1.15,2013-02-01 13:02:00,
2013-02-01 05:07:00,44.9,38.8,30.21,North,360,0.0,1.0,79,0.00,,,0.00,Wunderground v.1.15,2013-02-01 13:07:00,
2013-02-01 05:12:00,44.6,38.5,30.21,North,360,1.0,1.0,79,0.00,,,0.00,Wunderground v.1.15,2013-02-01 13:12:00,
2013-02-01 05:17:00,44.1,38.0,30.22,North,360,0.0,2.0,79,0.00,,,0.00,Wunderground v.1.15,2013-02-01 13:17:00,
2013-02-01 05:22:00,43.8,38.0,30.22,North,360,0.0,1.0,80,0.00,,,0.00,Wunderground v.1.15,2013-02-01 13:22:00,
2013-02-01 05:27:00,43.4,37.6,30.22,North,360,0.0,1.0,80,0.00,,,0.00,Wunderground v.1.15,2013-02-01 13:27:00,
2013-02-01 05:32:00,43.0,37.6,30.22,North,360,0.0,1.0,81,0.00,,,0.00,Wunderground v.1.15,2013-02-01 13:32:00,
2013-02-01 05:37:00,42.7,37.3,30.22,North,360,0.0,1.0,81,0.00,,,0.00,Wunderground v.1.15,2013-02-01 13:37:00,
2013-02-01 05:42:00,42.4,37.3,30.22,North,360,0.0,0.0,82,0.00,,,0.00,Wunderground v.1.15,2013-02-01 13:42:00,
2013-02-01 05:47:00,42.2,36.8,30.22,North,360,0.0,0.0,81,0.00,,,0.00,Wunderground v.1.15,2013-02-01 13:47:00,
2013-02-01 05:52:00,42.0,36.6,30.22,North,360,0.0,0.0,81,0.00,,,0.00,Wunderground v.1.15,2013-02-01 13:52:00,
2013-02-01 05:57:00,41.7,36.3,30.22,North,360,0.0,0.0,81,0.00,,,0.00,Wunderground v.1.15,2013-02-01 13:57:00,
2013-02-01 06:02:00,41.5,36.4,30.22,North,360,0.0,0.0,82,0.00,,,0.00,Wunderground v.1.15,2013-02-01 14:02:00,
2013-02-01 06:07:00,41.2,36.4,30.22,North,360,0.0,0.0,83,0.00,,,0.00,Wunderground v.1.15,2013-02-01 14:07:00,
2013-02-01 06:12:00,41.0,36.2,30.22,North,360,0.0,0.0,83,0.00,,,0.00,Wunderground v.1.15,2013-02-01 14:12:00,
2013-02-01 06:17:00,40.7,36.5,30.22,North,360,0.0,1.0,85,0.00,,,0.00,Wunderground v.1.15,2013-02-01 14:17:00,
2013-02-01 06:22:00,40.5,36.3,30.22,North,360,0.0,0.0,85,0.00,,,0.00,Wunderground v.1.15,2013-02-01 14:22:00,
2013-02-01 06:27:00,40.4,36.2,30.22,North,360,0.0,0.0,85,0.00,,,0.00,Wunderground v.1.15,2013-02-01 14:27:00,
2013-02-01 06:32:00,40.3,36.1,30.22,North,360,0.0,0.0,85,0.00,,,0.00,Wunderground v.1.15,2013-02-01 14:32:00,
2013-02-01 06:37:00,40.1,36.2,30.23,North,360,0.0,0.0,86,0.00,,,0.00,Wunderground v.1.15,2013-02-01 14:37:00,
2013-02-01 06:42:00,40.0,36.2,30.23,North,360,0.0,0.0,86,0.00,,,0.00,Wunderground v.1.15,2013-02-01 14:42:00,
2013-02-01 06:47:00,39.8,36.0,30.23,North,360,0.0,1.0,86,0.00,,,0.00,Wunderground v.1.15,2013-02-01 14:47:00,
2013-02-01 06:52:00,39.7,36.1,30.23,North,360,0.0,0.0,87,0.00,,,0.00,Wunderground v.1.15,2013-02-01 14:52:00,
2013-02-01 06:57:00,39.6,36.0,30.23,North,360,0.0,0.0,87,0.00,,,0.00,Wunderground v.1.15,2013-02-01 14:57:00,
2013-02-01 07:02:00,39.5,36.0,30.23,North,360,0.0,0.0,87,0.00,,,0.00,Wunderground v.1.15,2013-02-01 15:02:00,
2013-02-01 07:07:00,39.3,36.0,30.23,North,360,0.0,0.0,88,0.00,,,0.00,Wunderground v.1.15,2013-02-01 15:07:00,
2013-02-01 07:12:00,39.2,35.9,30.24,North,360,2.0,2.0,88,0.00,,,0.00,Wunderground v.1.15,2013-02-01 15:12:00,
2013-02-01 07:17:00,39.1,35.8,30.24,North,360,1.0,2.0,88,0.00,,,0.00,Wunderground v.1.15,2013-02-01 15:17:00,
2013-02-01 07:22:00,39.1,36.1,30.24,North,360,0.0,1.0,89,0.00,,,0.00,Wunderground v.1.15,2013-02-01 15:22:00,
2013-02-01 07:27:00,38.9,35.9,30.24,North,360,1.0,2.0,89,0.00,,,0.00,Wunderground v.1.15,2013-02-01 15:27:00,
2013-02-01 07:32:00,38.9,35.9,30.24,North,360,0.0,0.0,89,0.00,,,0.00,Wunderground v.1.15,2013-02-01 15:32:00,
2013-02-01 07:37:00,38.8,35.8,30.24,North,360,0.0,0.0,89,0.00,,,0.00,Wunderground v.1.15,2013-02-01 15:37:00,
2013-02-01 07:42:00,38.9,36.2,30.24,North,360,1.0,2.0,90,0.00,,,0.00,Wunderground v.1.15,2013-02-01 15:42:00,
2013-02-01 07:47:00,39.0,36.3,30.24,North,360,1.0,2.0,90,0.00,,,0.00,Wunderground v.1.15,2013-02-01 15:47:00,
2013-02-01 07:52:00,39.2,36.5,30.24,North,360,0.0,3.0,90,0.00,,,0.00,Wunderground v.1.15,2013-02-01 15:52:00,
2013-02-01 07:57:00,39.6,36.9,30.24,North,360,0.0,3.0,90,0.00,,,0.00,Wunderground v.1.15,2013-02-01 15:57:00,
2013-02-01 08:02:00,40.2,37.5,30.24,North,360,1.0,2.0,90,0.00,,,0.00,Wunderground v.1.15,2013-02-01 16:02:00,
2013-02-01 08:07:00,40.9,37.9,30.24,North,360,4.0,4.0,89,0.00,,,0.00,Wunderground v.1.15,2013-02-01 16:07:00,
2013-02-01 08:12:00,41.5,37.9,30.24,North,360,3.0,5.0,87,0.00,,,0.00,Wunderground v.1.15,2013-02-01 16:12:00,
2013-02-01 08:17:00,42.0,38.1,30.24,North,5,4.0,5.0,86,0.00,,,0.00,Wunderground v.1.15,2013-02-01 16:17:00,
2013-02-01 08:22:00,42.2,38.0,30.24,NNE,14,3.0,6.0,85,0.00,,,0.00,Wunderground v.1.15,2013-02-01 16:22:00,
2013-02-01 08:27:00,42.4,38.2,30.25,NNE,14,0.0,6.0,85,0.00,,,0.00,Wunderground v.1.15,2013-02-01 16:27:00,
2013-02-01 08:32:00,42.8,38.3,30.25,NNE,14,1.0,2.0,84,0.00,,,0.00,Wunderground v.1.15,2013-02-01 16:32:00,
2013-02-01 08:37:00,42.9,38.4,30.25,NNE,14,1.0,2.0,84,0.00,,,0.00,Wunderground v.1.15,2013-02-01 16:37:00,
2013-02-01 08:42:00,43.2,38.7,30.25,NNE,14,0.0,3.0,84,0.00,,,0.00,Wunderground v.1.15,2013-02-01 16:42:00,
2013-02-01 08:47:00,43.6,39.1,30.25,NNE,14,1.0,3.0,84,0.00,,,0.00,Wunderground v.1.15,2013-02-01 16:47:00,
2013-02-01 08:52:00,44.0,39.8,30.25,NNE,14,1.0,2.0,85,0.00,,,0.00,Wunderground v.1.15,2013-02-01 16:52:00,
2013-02-01 08:57:00,44.5,40.0,30.25,NNE,14,0.0,3.0,84,0.00,,,0.00,Wunderground v.1.15,2013-02-01 16:57:00,
2013-02-01 09:02:00,45.3,40.4,30.24,NNE,14,2.0,4.0,83,0.00,,,0.00,Wunderground v.1.15,2013-02-01 17:02:00,
2013-02-01 09:07:00,46.3,41.1,30.24,NNE,14,2.0,5.0,82,0.00,,,0.00,Wunderground v.1.15,2013-02-01 17:07:00,
2013-02-01 09:12:00,47.2,40.7,30.24,NNE,14,3.0,4.0,78,0.00,,,0.00,Wunderground v.1.15,2013-02-01 17:12:00,
2013-02-01 09:17:00,47.7,41.2,30.24,NNE,17,2.0,8.0,78,0.00,,,0.00,Wunderground v.1.15,2013-02-01 17:17:00,
2013-02-01 09:22:00,48.1,41.2,30.24,NNE,29,3.0,6.0,77,0.00,,,0.00,Wunderground v.1.15,2013-02-01 17:22:00,
2013-02-01 09:27:00,48.7,41.5,30.24,NNE,13,4.0,7.0,76,0.00,,,0.00,Wunderground v.1.15,2013-02-01 17:27:00,
2013-02-01 09:32:00,48.9,41.0,30.24,NE,42,3.0,8.0,74,0.00,,,0.00,Wunderground v.1.15,2013-02-01 17:32:00,
2013-02-01 09:37:00,49.3,41.0,30.24,NNE,28,6.0,8.0,73,0.00,,,0.00,Wunderground v.1.15,2013-02-01 17:37:00,
2013-02-01 09:42:00,49.7,41.4,30.24,NNW,341,6.0,10.0,73,0.00,,,0.00,Wunderground v.1.15,2013-02-01 17:42:00,
2013-02-01 09:47:00,50.2,41.9,30.24,NNE,19,2.0,10.0,73,0.00,,,0.00,Wunderground v.1.15,2013-02-01 17:47:00,
2013-02-01 09:52:00,50.9,42.6,30.24,NNE,26,7.0,7.0,73,0.00,,,0.00,Wunderground v.1.15,2013-02-01 17:52:00,
2013-02-01 09:57:00,51.3,42.2,30.24,North,360,4.0,10.0,71,0.00,,,0.00,Wunderground v.1.15,2013-02-01 17:57:00,
2013-02-01 10:02:00,51.9,42.4,30.24,NNE,26,4.0,8.0,70,0.00,,,0.00,Wunderground v.1.15,2013-02-01 18:02:00,
2013-02-01 10:07:00,52.5,42.2,30.24,NNE,26,6.0,11.0,68,0.00,,,0.00,Wunderground v.1.15,2013-02-01 18:07:00,
2013-02-01 10:12:00,52.8,42.1,30.24,NNE,16,2.0,9.0,67,0.00,,,0.00,Wunderground v.1.15,2013-02-01 18:12:00,
2013-02-01 10:17:00,53.3,42.2,30.24,North,5,5.0,9.0,66,0.00,,,0.00,Wunderground v.1.15,2013-02-01 18:17:00,
2013-02-01 10:22:00,53.6,42.5,30.24,North,5,5.0,10.0,66,0.00,,,0.00,Wunderground v.1.15,2013-02-01 18:22:00,
2013-02-01 10:27:00,54.1,42.6,30.24,North,5,9.0,10.0,65,0.00,,,0.00,Wunderground v.1.15,2013-02-01 18:27:00,
2013-02-01 10:32:00,54.8,42.9,30.24,NNE,12,2.0,8.0,64,0.00,,,0.00,Wunderground v.1.15,2013-02-01 18:32:00,
2013-02-01 10:37:00,55.5,43.1,30.24,NNE,16,4.0,9.0,63,0.00,,,0.00,Wunderground v.1.15,2013-02-01 18:37:00,
2013-02-01 10:42:00,56.2,43.3,30.24,North,350,5.0,7.0,62,0.00,,,0.00,Wunderground v.1.15,2013-02-01 18:42:00,
2013-02-01 10:47:00,56.7,43.4,30.24,North,355,3.0,10.0,61,0.00,,,0.00,Wunderground v.1.15,2013-02-01 18:47:00,
2013-02-01 10:52:00,56.7,43.0,30.24,NNW,344,5.0,11.0,60,0.00,,,0.00,Wunderground v.1.15,2013-02-01 18:52:00,
2013-02-01 10:57:00,57.1,42.9,30.23,North,5,4.0,11.0,59,0.00,,,0.00,Wunderground v.1.15,2013-02-01 18:57:00,
2013-02-01 11:02:00,57.2,43.0,30.23,NE,55,3.0,10.0,59,0.00,,,0.00,Wunderground v.1.15,2013-02-01 19:02:00,
2013-02-01 11:07:00,57.4,43.6,30.23,NNE,27,6.0,10.0,60,0.00,,,0.00,Wunderground v.1.15,2013-02-01 19:07:00,
2013-02-01 11:12:00,58.1,43.8,30.23,North,360,3.0,8.0,59,0.00,,,0.00,Wunderground v.1.15,2013-02-01 19:12:00,
2013-02-01 11:17:00,58.2,43.5,30.23,North,351,3.0,11.0,58,0.00,,,0.00,Wunderground v.1.15,2013-02-01 19:17:00,
2013-02-01 11:22:00,58.3,43.6,30.23,NE,37,7.0,11.0,58,0.00,,,0.00,Wunderground v.1.15,2013-02-01 19:22:00,
2013-02-01 11:27:00,58.7,43.0,30.23,NNE,20,4.0,11.0,56,0.00,,,0.00,Wunderground v.1.15,2013-02-01 19:27:00,
2013-02-01 11:32:00,59.1,42.9,30.23,NNW,336,6.0,11.0,55,0.00,,,0.00,Wunderground v.1.15,2013-02-01 19:32:00,
2013-02-01 11:37:00,59.4,42.7,30.23,North,355,8.0,11.0,54,0.00,,,0.00,Wunderground v.1.15,2013-02-01 19:37:00,
2013-02-01 11:42:00,59.6,42.9,30.23,NNE,23,4.0,9.0,54,0.00,,,0.00,Wunderground v.1.15,2013-02-01 19:42:00,
2013-02-01 11:47:00,59.7,42.5,30.23,NNE,15,8.0,10.0,53,0.00,,,0.00,Wunderground v.1.15,2013-02-01 19:47:00,
2013-02-01 11:52:00,59.8,43.1,30.22,North,355,7.0,9.0,54,0.00,,,0.00,Wunderground v.1.15,2013-02-01 19:52:00,
2013-02-01 11:57:00,60.2,42.5,30.22,NNW,340,3.0,12.0,52,0.00,,,0.00,Wunderground v.1.15,2013-02-01 19:57:00,
2013-02-01 12:02:00,60.2,42.5,30.22,North,355,3.0,10.0,52,0.00,,,0.00,Wunderground v.1.15,2013-02-01 20:02:00,
2013-02-01 12:07:00,60.9,42.6,30.21,North,5,4.0,11.0,51,0.00,,,0.00,Wunderground v.1.15,2013-02-01 20:07:00,
2013-02-01 12:12:00,61.0,42.7,30.21,North,5,3.0,11.0,51,0.00,,,0.00,Wunderground v.1.15,2013-02-01 20:12:00,
2013-02-01 12:17:00,61.1,42.8,30.20,North,5,4.0,11.0,51,0.00,,,0.00,Wunderground v.1.15,2013-02-01 20:17:00,
2013-02-01 12:22:00,61.8,44.0,30.20,NNE,28,5.0,8.0,52,0.00,,,0.00,Wunderground v.1.15,2013-02-01 20:22:00,
2013-02-01 12:27:00,61.7,42.9,30.20,North,349,7.0,12.0,50,0.00,,,0.00,Wunderground v.1.15,2013-02-01 20:27:00,
2013-02-01 12:32:00,62.1,43.2,30.19,North,5,3.0,10.0,50,0.00,,,0.00,Wunderground v.1.15,2013-02-01 20:32:00,
2013-02-01 12:37:00,62.2,42.8,30.19,North,350,6.0,10.0,49,0.00,,,0.00,Wunderground v.1.15,2013-02-01 20:37:00,
2013-02-01 12:42:00,62.2,42.8,30.19,NNE,26,7.0,10.0,49,0.00,,,0.00,Wunderground v.1.15,2013-02-01 20:42:00,
2013-02-01 12:47:00,62.2,42.8,30.19,NE,47,7.0,14.0,49,0.00,,,0.00,Wunderground v.1.15,2013-02-01 20:47:00,
2013-02-01 12:52:00,62.5,43.1,30.18,North,5,7.0,10.0,49,0.00,,,0.00,Wunderground v.1.15,2013-02-01 20:52:00,
2013-02-01 12:57:00,63.0,43.5,30.18,NE,43,8.0,10.0,49,0.00,,,0.00,Wunderground v.1.15,2013-02-01 20:57:00,
2013-02-01 13:02:00,63.0,43.5,30.18,NNE,31,9.0,9.0,49,0.00,,,0.00,Wunderground v.1.15,2013-02-01 21:02:00,
2013-02-01 13:07:00,63.2,43.7,30.18,NNE,26,6.0,10.0,49,0.00,,,0.00,Wunderground v.1.15,2013-02-01 21:07:00,
2013-02-01 13:12:00,63.6,43.5,30.18,NNE,13,3.0,7.0,48,0.00,,,0.00,Wunderground v.1.15,2013-02-01 21:12:00,
2013-02-01 13:17:00,63.9,43.3,30.18,NNE,21,9.0,12.0,47,0.00,,,0.00,Wunderground v.1.15,2013-02-01 21:17:00,
2013-02-01 13:22:00,63.5,42.3,30.17,NNE,32,8.0,12.0,46,0.00,,,0.00,Wunderground v.1.15,2013-02-01 21:22:00,
2013-02-01 13:27:00,63.5,42.9,30.17,NNE,31,8.0,12.0,47,0.00,,,0.00,Wunderground v.1.15,2013-02-01 21:27:00,
2013-02-01 13:32:00,63.7,43.1,30.17,NNE,29,9.0,13.0,47,0.00,,,0.00,Wunderground v.1.15,2013-02-01 21:32:00,
2013-02-01 13:37:00,64.0,42.2,30.16,NNE,14,10.0,13.0,45,0.00,,,0.00,Wunderground v.1.15,2013-02-01 21:37:00,
2013-02-01 13:42:00,64.2,43.0,30.16,North,5,3.0,10.0,46,0.00,,,0.00,Wunderground v.1.15,2013-02-01 21:42:00,
2013-02-01 13:47:00,64.7,42.3,30.16,North,355,4.0,10.0,44,0.00,,,0.00,Wunderground v.1.15,2013-02-01 21:47:00,
2013-02-01 13:52:00,64.7,42.3,30.16,North,5,4.0,9.0,44,0.00,,,0.00,Wunderground v.1.15,2013-02-01 21:52:00,
2013-02-01 13:57:00,64.9,43.0,30.16,NE,46,7.0,10.0,45,0.00,,,0.00,Wunderground v.1.15,2013-02-01 21:57:00,
2013-02-01 14:02:00,64.6,42.8,30.16,NNE,25,7.0,11.0,45,0.00,,,0.00,Wunderground v.1.15,2013-02-01 22:02:00,
2013-02-01 14:07:00,64.6,43.3,30.16,NNE,14,3.0,11.0,46,0.00,,,0.00,Wunderground v.1.15,2013-02-01 22:07:00,
2013-02-01 14:12:00,64.9,43.0,30.15,North,9,4.0,8.0,45,0.00,,,0.00,Wunderground v.1.15,2013-02-01 22:12:00,
2013-02-01 14:17:00,65.4,43.5,30.15,NE,46,8.0,9.0,45,0.00,,,0.00,Wunderground v.1.15,2013-02-01 22:17:00,
2013-02-01 14:22:00,65.2,43.3,30.16,NNE,31,7.0,11.0,45,0.00,,,0.00,Wunderground v.1.15,2013-02-01 22:22:00,
2013-02-01 14:27:00,65.2,43.3,30.16,NNE,32,7.0,13.0,45,0.00,,,0.00,Wunderground v.1.15,2013-02-01 22:27:00,
2013-02-01 14:32:00,65.1,43.2,30.16,NNE,21,5.0,10.0,45,0.00,,,0.00,Wunderground v.1.15,2013-02-01 22:32:00,
2013-02-01 14:37:00,65.3,43.4,30.16,North,355,3.0,10.0,45,0.00,,,0.00,Wunderground v.1.15,2013-02-01 22:37:00,
2013-02-01 14:42:00,65.6,43.7,30.16,North,360,4.0,10.0,45,0.00,,,0.00,Wunderground v.1.15,2013-02-01 22:42:00,
2013-02-01 14:47:00,65.4,44.1,30.16,NE,37,7.0,11.0,46,0.00,,,0.00,Wunderground v.1.15,2013-02-01 22:47:00,
2013-02-01 14:52:00,65.6,44.8,30.16,NNE,21,4.0,6.0,47,0.00,,,0.00,Wunderground v.1.15,2013-02-01 22:52:00,
2013-02-01 14:57:00,65.5,43.6,30.16,NNE,28,7.0,11.0,45,0.00,,,0.00,Wunderground v.1.15,2013-02-01 22:57:00,
2013-02-01 15:02:00,65.5,44.7,30.15,NNW,335,7.0,7.0,47,0.00,,,0.00,Wunderground v.1.15,2013-02-01 23:02:00,
2013-02-01 15:07:00,65.4,44.6,30.15,North,360,4.0,11.0,47,0.00,,,0.00,Wunderground v.1.15,2013-02-01 23:07:00,
2013-02-01 15:12:00,65.4,45.2,30.15,North,5,8.0,9.0,48,0.00,,,0.00,Wunderground v.1.15,2013-02-01 23:12:00,
2013-02-01 15:17:00,65.3,44.5,30.15,NNE,29,6.0,9.0,47,0.00,,,0.00,Wunderground v.1.15,2013-02-01 23:17:00,
2013-02-01 15:22:00,65.3,45.1,30.14,NE,37,5.0,8.0,48,0.00,,,0.00,Wunderground v.1.15,2013-02-01 23:22:00,
2013-02-01 15:27:00,65.3,45.6,30.14,NE,38,8.0,11.0,49,0.00,,,0.00,Wunderground v.1.15,2013-02-01 23:27:00,
2013-02-01 15:32:00,65.0,44.8,30.14,NNE,21,3.0,8.0,48,0.00,,,0.00,Wunderground v.1.15,2013-02-01 23:32:00,
2013-02-01 15:37:00,65.1,44.9,30.15,NNE,22,7.0,9.0,48,0.00,,,0.00,Wunderground v.1.15,2013-02-01 23:37:00,
2013-02-01 15:42:00,64.9,45.3,30.15,NE,46,5.0,9.0,49,0.00,,,0.00,Wunderground v.1.15,2013-02-01 23:42:00,
2013-02-01 15:47:00,64.8,45.2,30.15,NNE,26,7.0,10.0,49,0.00,,,0.00,Wunderground v.1.15,2013-02-01 23:47:00,
2013-02-01 15:52:00,64.7,44.5,30.15,NE,50,6.0,9.0,48,0.00,,,0.00,Wunderground v.1.15,2013-02-01 23:52:00,
2013-02-01 15:57:00,64.6,45.0,30.15,NNE,26,3.0,9.0,49,0.00,,,0.00,Wunderground v.1.15,2013-02-01 23:57:00,
2013-02-01 16:02:00,64.5,44.4,30.15,NE,48,6.0,9.0,48,0.00,,,0.00,Wunderground v.1.15,2013-02-02 00:02:00,
2013-02-01 16:06:00,64.3,44.2,30.15,NNE,28,5.0,9.0,48,0.00,,,0.00,Wunderground v.1.15,2013-02-02 00:06:00,
2013-02-01 16:11:00,64.1,44.5,30.15,NNE,25,2.0,7.0,49,0.00,,,0.00,Wunderground v.1.15,2013-02-02 00:11:00,
2013-02-01 16:16:00,63.9,45.4,30.15,NNE,25,6.0,7.0,51,0.00,,,0.00,Wunderground v.1.15,2013-02-02 00:16:00,
2013-02-01 16:21:00,63.8,45.3,30.15,NNE,24,5.0,5.0,51,0.00,,,0.00,Wunderground v.1.15,2013-02-02 00:21:00,
2013-02-01 16:26:00,63.6,45.1,30.15,NE,34,2.0,8.0,51,0.00,,,0.00,Wunderground v.1.15,2013-02-02 00:26:00,
2013-02-01 16:31:00,63.4,44.9,30.14,NNE,26,4.0,6.0,51,0.00,,,0.00,Wunderground v.1.15,2013-02-02 00:31:00,
2013-02-01 16:36:00,63.2,44.8,30.14,NNE,30,4.0,6.0,51,0.00,,,0.00,Wunderground v.1.15,2013-02-02 00:36:00,
2013-02-01 16:41:00,63.1,44.7,30.14,NNE,30,3.0,6.0,51,0.00,,,0.00,Wunderground v.1.15,2013-02-02 00:41:00,
2013-02-01 16:46:00,62.9,45.0,30.14,NNE,30,3.0,6.0,52,0.00,,,0.00,Wunderground v.1.15,2013-02-02 00:46:00,
2013-02-01 16:51:00,62.7,44.8,30.15,NNE,30,0.0,3.0,52,0.00,,,0.00,Wunderground v.1.15,2013-02-02 00:51:00,
2013-02-01 16:56:00,62.5,44.6,30.15,NNE,30,1.0,3.0,52,0.00,,,0.00,Wunderground v.1.15,2013-02-02 00:56:00,
2013-02-01 17:01:00,62.4,45.0,30.15,NNE,30,1.0,3.0,53,0.00,,,0.00,Wunderground v.1.15,2013-02-02 01:01:00,
2013-02-01 17:06:00,62.2,44.9,30.14,NNE,30,0.0,3.0,53,0.00,,,0.00,Wunderground v.1.15,2013-02-02 01:06:00,
2013-02-01 17:11:00,62.1,44.8,30.15,NNE,30,1.0,2.0,53,0.00,,,0.00,Wunderground v.1.15,2013-02-02 01:11:00,
2013-02-01 17:16:00,61.8,45.0,30.15,NNE,30,0.0,3.0,54,0.00,,,0.00,Wunderground v.1.15,2013-02-02 01:16:00,
2013-02-01 17:21:00,61.6,44.3,30.15,NNE,30,2.0,2.0,53,0.00,,,0.00,Wunderground v.1.15,2013-02-02 01:21:00,
2013-02-01 17:26:00,61.5,44.7,30.15,NNE,30,1.0,3.0,54,0.00,,,0.00,Wunderground v.1.15,2013-02-02 01:26:00,
2013-02-01 17:31:00,61.3,45.0,30.16,NNE,30,0.0,1.0,55,0.00,,,0.00,Wunderground v.1.15,2013-02-02 01:31:00,
2013-02-01 17:36:00,60.9,44.6,30.16,NNE,30,1.0,1.0,55,0.00,,,0.00,Wunderground v.1.15,2013-02-02 01:36:00,
2013-02-01 17:41:00,60.4,44.6,30.16,NNE,30,0.0,1.0,56,0.00,,,0.00,Wunderground v.1.15,2013-02-02 01:41:00,
2013-02-01 17:46:00,59.8,44.5,30.16,NNE,30,0.0,1.0,57,0.00,,,0.00,Wunderground v.1.15,2013-02-02 01:46:00,
2013-02-01 17:51:00,59.4,44.2,30.16,NNE,30,0.0,1.0,57,0.00,,,0.00,Wunderground v.1.15,2013-02-02 01:51:00,
2013-02-01 17:56:00,59.0,43.8,30.17,NNE,30,0.0,1.0,57,0.00,,,0.00,Wunderground v.1.15,2013-02-02 01:56:00,
2013-02-01 18:01:00,58.8,43.1,30.17,NNE,30,2.0,2.0,56,0.00,,,0.00,Wunderground v.1.15,2013-02-02 02:01:00,
2013-02-01 18:06:00,58.7,43.0,30.17,NNE,30,2.0,3.0,56,0.00,,,0.00,Wunderground v.1.15,2013-02-02 02:06:00,
2013-02-01 18:11:00,58.6,42.9,30.17,NNE,30,1.0,2.0,56,0.00,,,0.00,Wunderground v.1.15,2013-02-02 02:11:00,
2013-02-01 18:16:00,58.3,42.7,30.17,NNE,30,0.0,3.0,56,0.00,,,0.00,Wunderground v.1.15,2013-02-02 02:16:00,
2013-02-01 18:21:00,58.2,42.6,30.17,NNE,30,1.0,1.0,56,0.00,,,0.00,Wunderground v.1.15,2013-02-02 02:21:00,
2013-02-01 18:26:00,58.1,42.9,30.17,NNE,30,0.0,1.0,57,0.00,,,0.00,Wunderground v.1.15,2013-02-02 02:26:00,
2013-02-01 18:31:00,57.9,42.8,30.18,NNE,30,0.0,0.0,57,0.00,,,0.00,Wunderground v.1.15,2013-02-02 02:31:00,
2013-02-01 18:36:00,57.7,42.6,30.18,NNE,30,0.0,1.0,57,0.00,,,0.00,Wunderground v.1.15,2013-02-02 02:36:00,
2013-02-01 18:41:00,57.4,42.7,30.18,NNE,30,0.0,0.0,58,0.00,,,0.00,Wunderground v.1.15,2013-02-02 02:41:00,
2013-02-01 18:46:00,57.0,42.8,30.18,NNE,30,0.0,1.0,59,0.00,,,0.00,Wunderground v.1.15,2013-02-02 02:46:00,
2013-02-01 18:51:00,56.8,42.6,30.19,NNE,30,0.0,0.0,59,0.00,,,0.00,Wunderground v.1.15,2013-02-02 02:51:00,
2013-02-01 18:56:00,56.4,42.7,30.19,NNE,30,0.0,0.0,60,0.00,,,0.00,Wunderground v.1.15,2013-02-02 02:56:00,
2013-02-01 19:01:00,55.8,43.0,30.19,NNE,30,0.0,0.0,62,0.00,,,0.00,Wunderground v.1.15,2013-02-02 03:01:00,
2013-02-01 19:06:00,55.5,43.1,30.19,NNE,30,0.0,1.0,63,0.00,,,0.00,Wunderground v.1.15,2013-02-02 03:06:00,
2013-02-01 19:11:00,55.3,42.9,30.19,NNE,30,1.0,1.0,63,0.00,,,0.00,Wunderground v.1.15,2013-02-02 03:11:00,
2013-02-01 19:16:00,55.2,43.2,30.20,NNE,30,0.0,1.0,64,0.00,,,0.00,Wunderground v.1.15,2013-02-02 03:16:00,
2013-02-01 19:21:00,55.1,43.1,30.20,NNE,30,1.0,2.0,64,0.00,,,0.00,Wunderground v.1.15,2013-02-02 03:21:00,
2013-02-01 19:26:00,54.9,43.4,30.20,NNE,30,1.0,2.0,65,0.00,,,0.00,Wunderground v.1.15,2013-02-02 03:26:00,
2013-02-01 19:31:00,54.7,43.2,30.20,NNE,30,0.0,2.0,65,0.00,,,0.00,Wunderground v.1.15,2013-02-02 03:31:00,
2013-02-01 19:36:00,54.5,43.4,30.20,NNE,30,1.0,2.0,66,0.00,,,0.00,Wunderground v.1.15,2013-02-02 03:36:00,
2013-02-01 19:41:00,54.3,43.2,30.20,NNE,30,1.0,1.0,66,0.00,,,0.00,Wunderground v.1.15,2013-02-02 03:41:00,
2013-02-01 19:46:00,54.0,42.9,30.20,NNE,30,0.0,1.0,66,0.00,,,0.00,Wunderground v.1.15,2013-02-02 03:46:00,
2013-02-01 19:51:00,53.6,42.9,30.20,NNE,30,0.0,1.0,67,0.00,,,0.00,Wunderground v.1.15,2013-02-02 03:51:00,
2013-02-01 19:56:00,53.5,43.2,30.20,NNE,30,0.0,1.0,68,0.00,,,0.00,Wunderground v.1.15,2013-02-02 03:56:00,
2013-02-01 20:01:00,53.3,43.0,30.20,NNE,30,2.0,2.0,68,0.00,,,0.00,Wunderground v.1.15,2013-02-02 04:01:00,
2013-02-01 20:06:00,53.1,42.8,30.20,NNE,30,2.0,3.0,68,0.00,,,0.00,Wunderground v.1.15,2013-02-02 04:06:00,
2013-02-01 20:11:00,52.8,42.9,30.20,NNE,30,0.0,2.0,69,0.00,,,0.00,Wunderground v.1.15,2013-02-02 04:11:00,
2013-02-01 20:16:00,52.5,42.6,30.20,NNE,30,0.0,2.0,69,0.00,,,0.00,Wunderground v.1.15,2013-02-02 04:16:00,
2013-02-01 20:21:00,52.2,42.7,30.20,NNE,30,0.0,0.0,70,0.00,,,0.00,Wunderground v.1.15,2013-02-02 04:21:00,
2013-02-01 20:26:00,52.1,42.6,30.20,NNE,30,0.0,0.0,70,0.00,,,0.00,Wunderground v.1.15,2013-02-02 04:26:00,
2013-02-01 20:31:00,52.0,42.5,30.20,NNE,30,0.0,0.0,70,0.00,,,0.00,Wunderground v.1.15,2013-02-02 04:31:00,
2013-02-01 20:36:00,52.0,42.5,30.21,NNE,30,2.0,3.0,70,0.00,,,0.00,Wunderground v.1.15,2013-02-02 04:36:00,
2013-02-01 20:41:00,52.0,42.5,30.21,NNE,30,1.0,2.0,70,0.00,,,0.00,Wunderground v.1.15,2013-02-02 04:41:00,
2013-02-01 20:46:00,51.8,42.3,30.21,NNE,30,1.0,3.0,70,0.00,,,0.00,Wunderground v.1.15,2013-02-02 04:46:00,
2013-02-01 20:51:00,51.7,42.2,30.21,NNE,30,0.0,1.0,70,0.00,,,0.00,Wunderground v.1.15,2013-02-02 04:51:00,
2013-02-01 20:56:00,51.6,42.1,30.21,NNE,30,0.0,1.0,70,0.00,,,0.00,Wunderground v.1.15,2013-02-02 04:56:00,
2013-02-01 21:00:00,51.5,42.0,30.21,NNE,30,0.0,0.0,70,0.00,,,0.00,Wunderground v.1.15,2013-02-02 05:00:00,
2013-02-01 21:05:00,51.2,41.7,30.21,NNE,30,0.0,1.0,70,0.00,,,0.00,Wunderground v.1.15,2013-02-02 05:05:00,
2013-02-01 21:10:00,51.0,41.6,30.21,NNE,30,0.0,0.0,70,0.00,,,0.00,Wunderground v.1.15,2013-02-02 05:10:00,
2013-02-01 21:15:00,50.8,41.7,30.21,NNE,30,0.0,0.0,71,0.00,,,0.00,Wunderground v.1.15,2013-02-02 05:15:00,
2013-02-01 21:20:00,50.6,41.5,30.21,NNE,30,0.0,1.0,71,0.00,,,0.00,Wunderground v.1.15,2013-02-02 05:20:00,
2013-02-01 21:25:00,50.5,41.4,30.21,NNE,30,0.0,1.0,71,0.00,,,0.00,Wunderground v.1.15,2013-02-02 05:25:00,
2013-02-01 21:30:00,50.4,41.3,30.22,NNE,30,0.0,0.0,71,0.00,,,0.00,Wunderground v.1.15,2013-02-02 05:30:00,
2013-02-01 21:35:00,50.2,41.5,30.22,NNE,30,1.0,2.0,72,0.00,,,0.00,Wunderground v.1.15,2013-02-02 05:35:00,
2013-02-01 21:40:00,50.2,41.5,30.22,NNE,30,0.0,0.0,72,0.00,,,0.00,Wunderground v.1.15,2013-02-02 05:40:00,
2013-02-01 21:45:00,50.1,41.4,30.22,NNE,30,1.0,1.0,72,0.00,,,0.00,Wunderground v.1.15,2013-02-02 05:45:00,
2013-02-01 21:50:00,49.9,41.2,30.22,NNE,30,0.0,0.0,72,0.00,,,0.00,Wunderground v.1.15,2013-02-02 05:50:00,
2013-02-01 21:55:00,49.7,41.4,30.22,NNE,30,0.0,0.0,73,0.00,,,0.00,Wunderground v.1.15,2013-02-02 05:55:00,
2013-02-01 22:00:00,49.4,41.1,30.22,NNE,30,0.0,0.0,73,0.00,,,0.00,Wunderground v.1.15,2013-02-02 06:00:00,
2013-02-01 22:05:00,49.2,40.9,30.22,NNE,30,0.0,0.0,73,0.00,,,0.00,Wunderground v.1.15,2013-02-02 06:05:00,
2013-02-01 22:10:00,49.0,41.1,30.22,NNE,30,0.0,0.0,74,0.00,,,0.00,Wunderground v.1.15,2013-02-02 06:10:00,
2013-02-01 22:15:00,49.0,41.1,30.22,NNE,30,0.0,0.0,74,0.00,,,0.00,Wunderground v.1.15,2013-02-02 06:15:00,
2013-02-01 22:20:00,48.8,40.9,30.22,NNE,30,0.0,0.0,74,0.00,,,0.00,Wunderground v.1.15,2013-02-02 06:20:00,
2013-02-01 22:25:00,48.6,40.7,30.22,NNE,30,0.0,1.0,74,0.00,,,0.00,Wunderground v.1.15,2013-02-02 06:25:00,
2013-02-01 22:30:00,48.6,41.0,30.22,NNE,30,1.0,1.0,75,0.00,,,0.00,Wunderground v.1.15,2013-02-02 06:30:00,
2013-02-01 22:35:00,48.5,40.9,30.22,NNE,30,0.0,1.0,75,0.00,,,0.00,Wunderground v.1.15,2013-02-02 06:35:00,
2013-02-01 22:40:00,48.3,40.7,30.22,NNE,30,0.0,0.0,75,0.00,,,0.00,Wunderground v.1.15,2013-02-02 06:40:00,
2013-02-01 22:45:00,48.1,40.5,30.23,NNE,30,0.0,0.0,75,0.00,,,0.00,Wunderground v.1.15,2013-02-02 06:45:00,
2013-02-01 22:50:00,47.9,40.7,30.23,NNE,30,0.0,0.0,76,0.00,,,0.00,Wunderground v.1.15,2013-02-02 06:50:00,
2013-02-01 22:55:00,47.9,40.7,30.23,NNE,30,0.0,0.0,76,0.00,,,0.00,Wunderground v.1.15,2013-02-02 06:55:00,
2013-02-01 23:00:00,47.8,40.6,30.23,NNE,30,0.0,0.0,76,0.00,,,0.00,Wunderground v.1.15,2013-02-02 07:00:00,
2013-02-01 23:05:00,47.6,40.4,30.23,NNE,30,0.0,0.0,76,0.00,,,0.00,Wunderground v.1.15,2013-02-02 07:05:00,
2013-02-01 23:10:00,47.6,40.4,30.23,NNE,30,0.0,0.0,76,0.00,,,0.00,Wunderground v.1.15,2013-02-02 07:10:00,
2013-02-01 23:15:00,47.6,40.4,30.23,NNE,30,0.0,1.0,76,0.00,,,0.00,Wunderground v.1.15,2013-02-02 07:15:00,
2013-02-01 23:20:00,47.6,40.4,30.23,NNE,30,0.0,1.0,76,0.00,,,0.00,Wunderground v.1.15,2013-02-02 07:20:00,
2013-02-01 23:25:00,47.6,40.4,30.23,NNE,30,0.0,1.0,76,0.00,,,0.00,Wunderground v.1.15,2013-02-02 07:25:00,
2013-02-01 23:30:00,47.6,40.4,30.23,NNE,30,0.0,0.0,76,0.00,,,0.00,Wunderground v.1.15,2013-02-02 07:30:00,
2013-02-01 23:35:00,47.5,40.3,30.23,NNE,30,0.0,1.0,76,0.00,,,0.00,Wunderground v.1.15,2013-02-02 07:35:00,
2013-02-01 23:40:00,47.4,40.2,30.23,NNE,30,0.0,0.0,76,0.00,,,0.00,Wunderground v.1.15,2013-02-02 07:40:00,
2013-02-01 23:45:00,47.4,40.2,30.23,NNE,30,0.0,1.0,76,0.00,,,0.00,Wunderground v.1.15,2013-02-02 07:45:00,
2013-02-01 23:50:00,47.4,40.2,30.24,NNE,30,1.0,1.0,76,0.00,,,0.00,Wunderground v.1.15,2013-02-02 07:50:00,
2013-02-01 23:55:00,47.4,39.9,30.24,NNE,30,0.0,1.0,75,0.00,,,0.00,Wunderground v.1.15,2013-02-02 07:55:00,